WESTPORT MEDIA Westport In The Media

Enter your "Place, State", US Zip Code or ICAO:  

Nice, France

 Lat: 43.65N, Lon: 7.20E
ICAO Used: LFMN
Current Conditions
Updated: 12:30 PM GMT1 FRI AUG 1 2014
Sun & Moon Information
Partly Cloudy
Partly Cloudy
Temp: 25°C
Humidity: 69%
Wind Speed: SE 7 MPH
Barometer: 1011 mb
Dewpoint: 19°C
Heat Index: 26°C
Wind Chill: 25°C
Civil Twilight: 4:47 AM GMT1 Moon Phase:
Waxing Crescent Moon
Sunrise: 5:19 AM GMT1
Sunset: 7:53 PM GMT1
Civil Twilight: 8:26 PM GMT1
Forecast for Nice, France:
(Forecast based on TAF for )
0400 PM GMT1 FRI AUG 01 2014
  
AFTERNOON EVENING OVERNIGHT MORNING AFTERNOON EVENING
Fair Fair Fair Fair Fair Fair
ZoneCast:
Dated: 0400 PM GMT1 FRI AUG 01 2014
Afternoon...Becoming fair.

Evening...Fair.

Overnight...Fair.

Morning...Fair.

Afternoon...Fair with winds from the east at 12 mph.

Evening...Fair with winds from the east at 12 mph.

Original Encoded TAF:
Dated: 0400 PM GMT1 FRI AUG 01 2014
TAF LFMN 011100Z 0112/0218 16008KT 9999 FEW025 SCT040 
     BECMG 0115/0117 CAVOK 
     PROB30 
     TEMPO 0123/0208 BKN015 
     BECMG 0208/0210 10010KT 
     TEMPO 0212/0218 FEW030 FEW050CB SCT060